Time;durP1;ratioP1;P1;durP2;ratioP2;P2;SDS_P1;SDS_P2;PMS_P1;PMS_P2;Temp;Humidity;BMP_temperature;BMP_pressure;BME280_temperature;BME280_humidity;BME280_pressure;Samples;Min_cycle;Max_cycle;Signal;HPM_P1;HPM_P2
2021/12/01 00:00:33;;;;;;;6.05;2.00;;;;;;;-1.01;82.85;99642.66;5053772;28;20033;-83
2021/12/01 00:02:58;;;;;;;5.10;2.78;;;;;;;-1.00;82.47;99638.94;5054801;28;20084;-83
2021/12/01 00:05:25;;;;;;;5.70;2.65;;;;;;;-0.98;83.13;99644.88;5035180;28;20237;-83
2021/12/01 00:07:51;;;;;;;5.97;2.45;;;;;;;-0.98;82.81;99650.22;5051538;28;20588;-83
2021/12/01 00:10:17;;;;;;;4.20;2.58;;;;;;;-0.99;82.82;99639.75;5044064;28;20104;-83
2021/12/01 00:12:42;;;;;;;5.90;2.80;;;;;;;-0.98;83.01;99647.56;5034850;28;20112;-83
2021/12/01 00:15:08;;;;;;;5.95;2.20;;;;;;;-0.97;82.77;99646.50;5065208;28;20032;-83
2021/12/01 00:17:33;;;;;;;3.80;2.20;;;;;;;-0.98;83.13;99650.22;5056333;28;20035;-83
2021/12/01 00:19:59;;;;;;;3.03;1.85;;;;;;;-0.99;82.99;99647.78;5053709;28;20025;-83
2021/12/01 00:22:25;;;;;;;3.60;1.98;;;;;;;-1.01;83.16;99640.00;5054118;28;20029;-83
2021/12/01 00:24:51;;;;;;;7.25;2.35;;;;;;;-1.00;83.74;99641.63;5050089;28;20029;-83
2021/12/01 00:27:16;;;;;;;4.50;2.40;;;;;;;-1.02;82.74;99624.97;5051853;28;20028;-83
2021/12/01 00:29:41;;;;;;;5.63;2.38;;;;;;;-1.00;83.20;99619.41;5053173;28;20088;-83
2021/12/01 00:32:07;;;;;;;5.40;2.53;;;;;;;-1.01;83.35;99621.25;5049556;28;20470;-83
2021/12/01 00:34:34;;;;;;;5.05;2.80;;;;;;;-1.04;83.25;99608.31;5036399;28;20669;-83
2021/12/01 00:36:59;;;;;;;5.28;2.40;;;;;;;-1.06;83.12;99605.06;5049870;28;20158;-83
2021/12/01 00:39:24;;;;;;;4.53;2.42;;;;;;;-1.07;83.10;99603.44;5052400;28;20119;-83
2021/12/01 00:41:51;;;;;;;5.00;2.92;;;;;;;-1.08;83.29;99607.16;5045580;28;20035;-83
2021/12/01 00:44:16;;;;;;;3.33;2.03;;;;;;;-1.10;83.68;99593.19;5053697;28;20096;-83
2021/12/01 00:46:53;;;;;;;4.90;2.33;;;;;;;-1.14;83.25;99597.38;5052816;28;20032;-83
2021/12/01 00:49:18;;;;;;;3.72;2.10;;;;;;;-1.14;83.54;99595.50;5057286;28;20036;-83
2021/12/01 00:51:45;;;;;;;3.65;2.05;;;;;;;-1.15;83.36;99590.38;5046332;28;20054;-83
2021/12/01 00:54:11;;;;;;;4.15;2.17;;;;;;;-1.16;83.60;99583.41;5070718;28;20024;-82
2021/12/01 00:56:37;;;;;;;5.25;2.35;;;;;;;-1.17;83.26;99587.13;5045614;28;20025;-83
2021/12/01 00:59:02;;;;;;;3.33;2.05;;;;;;;-1.19;83.51;99584.66;5051959;28;20056;-83
2021/12/01 01:01:28;;;;;;;3.05;1.80;;;;;;;-1.19;83.92;99578.50;5052494;28;20180;-83
2021/12/01 01:03:53;;;;;;;6.13;2.15;;;;;;;-1.21;83.39;99575.25;5052481;28;20382;-83
2021/12/01 01:06:18;;;;;;;3.80;2.28;;;;;;;-1.24;83.65;99576.50;5042118;28;20036;-82
2021/12/01 01:08:45;;;;;;;3.58;1.60;;;;;;;-1.28;83.81;99578.00;5058484;28;20513;-83
2021/12/01 01:16:22;;;;;;;4.22;1.75;;;;;;;-1.30;83.68;99581.94;5037286;28;20452;-82
2021/12/01 01:16:43;;;;;;;2.88;1.80;;;;;;;-1.35;84.00;99570.06;5028768;28;20055;-83
2021/12/01 01:19:09;;;;;;;2.92;1.90;;;;;;;-1.38;83.85;99575.88;5051667;28;20025;-83
2021/12/01 01:21:36;;;;;;;2.97;1.80;;;;;;;-1.40;83.49;99577.13;5051465;28;20028;-83
2021/12/01 01:24:02;;;;;;;3.22;1.80;;;;;;;-1.43;84.01;99572.22;5049888;28;20017;-82
2021/12/01 01:26:27;;;;;;;3.70;1.90;;;;;;;-1.46;83.94;99568.16;5051933;28;20039;-82
2021/12/01 01:28:53;;;;;;;3.15;1.63;;;;;;;-1.50;84.04;99569.66;5054772;28;20083;-83
2021/12/01 01:31:19;;;;;;;3.13;1.75;;;;;;;-1.53;83.89;99555.91;5057999;28;20536;-83
2021/12/01 01:33:44;;;;;;;4.07;1.77;;;;;;;-1.57;83.82;99555.56;5053199;28;20028;-83
2021/12/01 01:36:10;;;;;;;4.30;1.83;;;;;;;-1.59;83.91;99557.63;5049448;28;20034;-83
2021/12/01 01:38:35;;;;;;;3.42;2.25;;;;;;;-1.61;83.94;99546.34;5044231;28;20040;-83
2021/12/01 01:41:03;;;;;;;2.75;1.52;;;;;;;-1.63;83.87;99551.09;5060535;28;20159;-84
2021/12/01 01:43:28;;;;;;;5.07;1.48;;;;;;;-1.65;83.98;99547.84;5052750;28;20035;-84
2021/12/01 01:45:54;;;;;;;3.60;1.63;;;;;;;-1.66;83.83;99547.03;5046395;28;20020;-83
2021/12/01 01:48:29;;;;;;;2.97;1.70;;;;;;;-1.64;84.04;99544.13;5038854;28;20029;-83
2021/12/01 01:50:56;;;;;;;3.72;1.85;;;;;;;-1.63;84.08;99535.09;5051583;28;20013;-84
2021/12/01 01:53:24;;;;;;;3.10;1.45;;;;;;;-1.62;83.90;99526.00;5051185;28;20029;-84
2021/12/01 01:55:53;;;;;;;2.67;1.48;;;;;;;-1.61;84.06;99519.63;5038134;28;20029;-84
2021/12/01 01:58:18;;;;;;;3.72;1.88;;;;;;;-1.63;83.88;99511.03;5038257;28;20454;-84
2021/12/01 02:00:52;;;;;;;3.50;1.63;;;;;;;-1.62;84.08;99512.66;5022805;28;20056;-84
2021/12/01 02:03:22;;;;;;;3.75;1.80;;;;;;;-1.62;84.07;99508.13;5051324;28;20017;-84
2021/12/01 02:05:48;;;;;;;3.03;1.58;;;;;;;-1.63;84.19;99513.69;5051649;28;20047;-84
2021/12/01 02:08:19;;;;;;;3.00;1.48;;;;;;;-1.65;84.14;99505.09;5044959;28;20462;-84
2021/12/01 02:10:49;;;;;;;3.00;1.50;;;;;;;-1.64;84.04;99506.72;5044527;28;20028;-84
2021/12/01 02:13:18;;;;;;;3.05;1.70;;;;;;;-1.64;84.16;99501.38;5051862;28;20467;-84
2021/12/01 02:15:44;;;;;;;4.13;1.63;;;;;;;-1.63;84.12;99505.69;5051413;28;20052;-84
2021/12/01 02:18:09;;;;;;;3.70;1.90;;;;;;;-1.62;84.21;99504.63;5052173;28;20025;-84
2021/12/01 02:20:35;;;;;;;7.95;1.90;;;;;;;-1.62;84.35;99504.63;5041909;28;20025;-84
2021/12/01 02:23:00;;;;;;;2.47;1.30;;;;;;;-1.62;84.26;99491.28;5022634;28;20496;-84
2021/12/01 02:25:25;;;;;;;2.78;1.52;;;;;;;-1.61;84.20;99479.53;5047931;28;20024;-84
2021/12/01 02:27:51;;;;;;;2.38;1.67;;;;;;;-1.63;84.31;99482.44;5051993;28;20032;-84
2021/12/01 02:30:16;;;;;;;3.63;1.73;;;;;;;-1.63;84.37;99489.66;5051144;28;20367;-84
2021/12/01 02:32:42;;;;;;;5.22;2.40;;;;;;;-1.65;84.50;99489.88;5054095;28;20031;-84
2021/12/01 02:35:07;;;;;;;3.63;1.77;;;;;;;-1.66;84.55;99492.78;5069197;28;20023;-84
2021/12/01 02:37:33;;;;;;;5.00;1.60;;;;;;;-1.66;84.50;99476.75;5051342;28;20413;-84
2021/12/01 02:39:58;;;;;;;3.88;2.13;;;;;;;-1.66;84.40;99496.25;5025390;28;20493;-84
2021/12/01 02:42:24;;;;;;;3.65;2.00;;;;;;;-1.66;84.45;99487.44;5051921;28;20028;-84
2021/12/01 02:44:49;;;;;;;3.70;1.80;;;;;;;-1.66;84.55;99487.44;5051850;28;20029;-84
2021/12/01 02:47:14;;;;;;;3.33;1.77;;;;;;;-1.66;84.78;99487.44;5051300;28;20037;-84
2021/12/01 02:49:40;;;;;;;4.47;2.05;;;;;;;-1.67;84.64;99483.13;5052046;28;20083;-84
2021/12/01 02:52:06;;;;;;;3.97;1.92;;;;;;;-1.69;84.61;99487.84;5047538;28;20033;-84
2021/12/01 02:54:32;;;;;;;3.35;2.30;;;;;;;-1.69;84.98;99477.19;5053658;28;20028;-84
2021/12/01 02:56:58;;;;;;;3.92;1.85;;;;;;;-1.69;84.60;99477.19;5054868;28;20355;-84
2021/12/01 02:59:23;;;;;;;5.32;1.90;;;;;;;-1.68;84.85;99468.13;5054197;28;20028;-84
2021/12/01 03:01:48;;;;;;;3.67;1.73;;;;;;;-1.68;85.08;99465.47;5050582;28;20492;-84
2021/12/01 03:04:14;;;;;;;2.22;1.85;;;;;;;-1.68;84.91;99465.47;5060458;28;20029;-84
2021/12/01 03:06:43;;;;;;;4.03;1.73;;;;;;;-1.68;84.80;99454.78;5051528;28;20024;-84
2021/12/01 03:09:08;;;;;;;4.05;1.58;;;;;;;-1.70;84.82;99446.97;5033572;28;20501;-84
2021/12/01 03:11:35;;;;;;;2.42;1.55;;;;;;;-1.68;84.84;99446.75;5049665;28;20025;-83
2021/12/01 03:14:07;;;;;;;3.88;1.70;;;;;;;-1.66;85.06;99444.69;5042330;28;20083;-84
2021/12/01 03:16:34;;;;;;;4.53;1.95;;;;;;;-1.67;84.76;99438.50;5051355;28;20036;-81
2021/12/01 03:19:00;;;;;;;3.08;1.58;;;;;;;-1.65;85.12;99436.44;5064470;28;20025;-84
2021/12/01 03:21:25;;;;;;;2.80;1.50;;;;;;;-1.63;84.66;99436.22;5054548;28;20465;-84
2021/12/01 03:23:51;;;;;;;4.90;1.95;;;;;;;-1.64;85.26;99427.41;5055375;28;20032;-84
2021/12/01 03:26:16;;;;;;;3.83;1.80;;;;;;;-1.64;84.93;99415.88;5054502;28;20036;-83
2021/12/01 03:28:42;;;;;;;4.03;1.67;;;;;;;-1.63;85.28;99418.31;5055057;28;20036;-83
2021/12/01 03:31:07;;;;;;;7.38;2.05;;;;;;;-1.62;85.05;99414.59;5049101;28;20054;-83
2021/12/01 03:33:32;;;;;;;3.35;1.73;;;;;;;-1.58;85.13;99404.28;5018352;28;20022;-83
2021/12/01 03:35:58;;;;;;;4.88;2.00;;;;;;;-1.57;85.03;99398.69;5061458;28;20028;-84
2021/12/01 03:38:26;;;;;;;5.13;2.05;;;;;;;-1.55;84.93;99398.47;5037750;28;20501;-84
2021/12/01 03:40:52;;;;;;;6.57;2.15;;;;;;;-1.53;85.15;99395.56;5053327;28;20035;-84
2021/12/01 03:43:17;;;;;;;4.07;1.73;;;;;;;-1.53;85.21;99401.72;5055089;28;20033;-83
2021/12/01 03:45:42;;;;;;;4.80;1.90;;;;;;;-1.52;85.03;99397.22;5051823;28;20045;-83
2021/12/01 03:48:08;;;;;;;3.95;2.03;;;;;;;-1.51;85.24;99393.47;5043939;28;20055;-83
2021/12/01 03:50:36;;;;;;;4.43;1.80;;;;;;;-1.51;85.21;99382.78;5072069;28;20078;-83
2021/12/01 03:53:01;;;;;;;3.13;1.77;;;;;;;-1.50;85.05;99379.91;5075049;28;20381;-84
2021/12/01 03:55:27;;;;;;;3.08;1.90;;;;;;;-1.49;84.83;99378.84;5060844;28;20031;-84
2021/12/01 03:57:52;;;;;;;4.13;2.22;;;;;;;-1.49;85.19;99368.16;5054387;28;20021;-83
2021/12/01 04:00:17;;;;;;;2.97;1.80;;;;;;;-1.50;85.21;99361.19;5054821;28;20025;-83
2021/12/01 04:02:44;;;;;;;3.40;1.80;;;;;;;-1.52;85.17;99347.25;5054227;28;20025;-84
2021/12/01 04:05:11;;;;;;;3.10;1.55;;;;;;;-1.51;85.27;99356.06;5054698;28;20029;-84
2021/12/01 04:07:36;;;;;;;4.35;2.13;;;;;;;-1.52;85.32;99333.88;5052505;28;20017;-84
2021/12/01 04:10:04;;;;;;;4.40;1.88;;;;;;;-1.51;85.13;99340.84;5037451;28;20024;-84
2021/12/01 04:12:29;;;;;;;4.85;1.85;;;;;;;-1.50;85.17;99347.00;5048421;28;20436;-84
2021/12/01 04:14:55;;;;;;;3.97;1.75;;;;;;;-1.47;85.33;99341.22;5074152;28;20102;-83
2021/12/01 04:17:20;;;;;;;3.40;1.92;;;;;;;-1.47;85.38;99342.03;5051961;28;20024;-83
2021/12/01 04:19:46;;;;;;;2.55;1.45;;;;;;;-1.44;85.45;99344.22;5074148;28;20017;-84
2021/12/01 04:22:11;;;;;;;4.38;1.75;;;;;;;-1.43;85.34;99345.03;5059799;28;20386;-83
2021/12/01 04:24:37;;;;;;;3.67;2.25;;;;;;;-1.42;85.32;99344.81;5054507;28;20358;-83
2021/12/01 04:27:02;;;;;;;2.78;1.65;;;;;;;-1.40;85.53;99342.72;5055930;28;20029;-83
2021/12/01 04:29:28;;;;;;;3.17;1.40;;;;;;;-1.39;85.36;99343.56;5065273;28;20031;-83
2021/12/01 04:31:53;;;;;;;3.30;1.35;;;;;;;-1.38;85.45;99348.66;5065363;28;20025;-84
2021/12/01 04:34:20;;;;;;;3.67;1.60;;;;;;;-1.37;85.36;99350.25;5068840;28;20381;-85
2021/12/01 04:36:47;;;;;;;5.60;1.50;;;;;;;-1.37;85.73;99339.56;5053804;28;20055;-84
2021/12/01 04:39:13;;;;;;;4.03;1.77;;;;;;;-1.35;85.55;99344.69;5032279;28;20033;-83
2021/12/01 04:41:42;;;;;;;4.30;1.58;;;;;;;-1.35;85.25;99340.16;5046897;28;20025;-84
2021/12/01 04:44:14;;;;;;;3.83;1.83;;;;;;;-1.32;85.49;99330.06;5053956;28;20035;-83
2021/12/01 04:46:46;;;;;;;2.05;1.40;;;;;;;-1.31;85.70;99323.66;5037652;28;20021;-83
2021/12/01 04:49:14;;;;;;;3.22;1.40;;;;;;;-1.29;85.61;99329.59;5038850;28;20535;-83
2021/12/01 04:51:40;;;;;;;2.28;1.33;;;;;;;-1.27;85.38;99330.19;5063139;28;20040;-83
2021/12/01 04:54:06;;;;;;;2.75;1.65;;;;;;;-1.27;85.71;99333.66;5048283;28;20060;-84
2021/12/01 04:56:32;;;;;;;7.43;2.22;;;;;;;-1.24;85.68;99332.38;5048185;28;20031;-84
2021/12/01 04:58:58;;;;;;;4.40;1.88;;;;;;;-1.24;85.62;99330.53;5046539;28;20041;-83
2021/12/01 05:01:23;;;;;;;4.70;1.67;;;;;;;-1.22;85.69;99332.97;5038974;28;20031;-83
2021/12/01 05:03:48;;;;;;;4.22;1.58;;;;;;;-1.20;85.73;99329.03;5047407;28;20036;-83
2021/12/01 05:06:16;;;;;;;3.08;1.73;;;;;;;-1.20;85.44;99328.19;5053034;28;20095;-84
2021/12/01 05:08:41;;;;;;;3.00;1.58;;;;;;;-1.20;85.66;99323.69;5053361;28;20032;-84
2021/12/01 05:11:08;;;;;;;3.08;1.77;;;;;;;-1.21;85.62;99321.22;5052418;28;20024;-83
2021/12/01 05:13:33;;;;;;;3.92;1.60;;;;;;;-1.22;85.59;99323.09;5047042;28;20041;-84
2021/12/01 05:15:59;;;;;;;3.42;2.38;;;;;;;-1.23;85.56;99316.13;5045784;28;20078;-83
2021/12/01 05:18:26;;;;;;;3.65;1.85;;;;;;;-1.23;85.70;99317.97;5051684;28;20465;-84
2021/12/01 05:20:51;;;;;;;3.83;1.85;;;;;;;-1.24;85.59;99309.13;5052642;28;20091;-83
2021/12/01 05:23:17;;;;;;;3.97;2.03;;;;;;;-1.27;85.33;99314.16;5051813;28;20488;-83
2021/12/01 05:25:44;;;;;;;3.35;1.60;;;;;;;-1.28;85.41;99307.16;5052952;28;20029;-84
2021/12/01 05:28:11;;;;;;;3.55;2.28;;;;;;;-1.29;85.57;99310.88;5043880;28;20028;-84
2021/12/01 05:30:36;;;;;;;5.28;1.73;;;;;;;-1.28;85.52;99307.16;5051285;28;20040;-83
2021/12/01 05:33:06;;;;;;;3.55;1.52;;;;;;;-1.29;85.62;99306.34;5052147;28;20045;-83
2021/12/01 05:35:32;;;;;;;2.17;1.42;;;;;;;-1.28;85.14;99299.13;5038844;28;20107;-83
2021/12/01 05:37:58;;;;;;;3.05;1.63;;;;;;;-1.29;85.54;99289.50;5044392;28;20025;-83
2021/12/01 05:40:23;;;;;;;2.33;1.20;;;;;;;-1.28;85.75;99296.47;5039891;28;20040;-83
2021/12/01 05:42:49;;;;;;;3.60;1.40;;;;;;;-1.30;85.59;99296.72;5051927;28;20021;-84
2021/12/01 05:45:15;;;;;;;3.85;1.35;;;;;;;-1.30;85.77;99303.91;5052827;28;20493;-83
2021/12/01 05:47:41;;;;;;;1.88;1.13;;;;;;;-1.30;85.48;99287.88;5051289;28;20032;-84
2021/12/01 05:50:07;;;;;;;4.22;2.03;;;;;;;-1.31;85.63;99286.22;5052884;28;20033;-83
2021/12/01 05:52:32;;;;;;;3.28;1.60;;;;;;;-1.32;85.58;99289.97;5051869;28;20534;-84
2021/12/01 05:54:57;;;;;;;2.67;1.20;;;;;;;-1.35;85.47;99281.34;5054774;28;20481;-83
2021/12/01 05:57:23;;;;;;;2.60;1.20;;;;;;;-1.36;85.36;99273.59;5041501;28;20036;-84
2021/12/01 05:59:49;;;;;;;2.95;1.75;;;;;;;-1.39;85.44;99279.41;5052379;28;20025;-82
2021/12/01 06:02:14;;;;;;;2.85;1.20;;;;;;;-1.40;85.65;99275.09;5050880;28;20025;-83
2021/12/01 06:04:39;;;;;;;2.42;1.15;;;;;;;-1.42;85.34;99269.16;5026324;28;20434;-84
2021/12/01 06:07:05;;;;;;;2.83;1.45;;;;;;;-1.45;85.67;99266.94;5051441;28;20037;-83
2021/12/01 06:09:31;;;;;;;5.57;1.50;;;;;;;-1.47;85.36;99261.84;5052300;28;20021;-84
2021/12/01 06:11:56;;;;;;;1.75;1.17;;;;;;;-1.49;85.33;99252.44;5050638;28;20497;-84
2021/12/01 06:14:22;;;;;;;3.55;1.17;;;;;;;-1.49;85.44;99252.44;5052028;28;20409;-84
2021/12/01 06:16:48;;;;;;;3.50;1.35;;;;;;;-1.49;85.40;99247.09;5030345;28;20048;-84
2021/12/01 06:19:14;;;;;;;2.95;1.65;;;;;;;-1.47;85.44;99245.81;5043994;28;20377;-83
2021/12/01 06:21:39;;;;;;;2.88;1.40;;;;;;;-1.45;85.58;99240.22;5050472;28;20025;-83
2021/12/01 06:24:05;;;;;;;2.55;1.55;;;;;;;-1.44;85.21;99234.66;5051106;28;20470;-84
2021/12/01 06:26:30;;;;;;;3.78;1.20;;;;;;;-1.41;85.70;99238.72;5049555;28;20033;-83
2021/12/01 06:28:56;;;;;;;2.63;1.73;;;;;;;-1.41;85.58;99239.53;5051423;28;20029;-83
2021/12/01 06:31:21;;;;;;;2.85;1.77;;;;;;;-1.39;85.58;99229.44;5060372;28;20017;-83
2021/12/01 06:33:47;;;;;;;3.95;1.50;;;;;;;-1.38;85.26;99225.69;5047239;28;20033;-84
2021/12/01 06:36:12;;;;;;;3.65;1.85;;;;;;;-1.36;85.46;99220.94;5061553;28;20059;-82
2021/12/01 06:38:39;;;;;;;2.97;1.60;;;;;;;-1.34;85.33;99215.34;5070860;28;20035;-82
2021/12/01 06:41:04;;;;;;;1.80;1.20;;;;;;;-1.35;85.55;99214.53;5092915;28;20077;-84
2021/12/01 06:43:29;;;;;;;2.58;1.35;;;;;;;-1.32;85.26;99209.78;5078720;28;20072;-82
2021/12/01 06:45:55;;;;;;;2.75;1.15;;;;;;;-1.32;85.44;99204.44;5074314;28;20534;-85
2021/12/01 06:48:20;;;;;;;3.33;1.17;;;;;;;-1.31;85.22;99211.38;5055345;28;20091;-83
2021/12/01 06:50:46;;;;;;;2.03;1.15;;;;;;;-1.29;85.23;99198.59;5055795;28;20021;-83
2021/12/01 06:53:11;;;;;;;1.63;1.17;;;;;;;-1.30;85.34;99203.16;5059614;28;20028;-83
2021/12/01 06:55:36;;;;;;;2.90;1.05;;;;;;;-1.30;85.16;99181.75;5057645;28;20016;-83
2021/12/01 06:58:02;;;;;;;3.00;1.35;;;;;;;-1.31;85.48;99184.66;5055183;28;20380;-84
2021/12/01 07:00:27;;;;;;;2.22;1.20;;;;;;;-1.32;85.36;99180.38;5041084;28;20024;-83
2021/12/01 07:02:53;;;;;;;3.00;1.23;;;;;;;-1.33;85.37;99168.06;5054962;28;20462;-84
2021/12/01 07:05:18;;;;;;;3.50;2.13;;;;;;;-1.36;85.22;99167.47;5044893;28;20029;-84
2021/12/01 07:07:43;;;;;;;2.53;1.35;;;;;;;-1.36;85.21;99167.47;5054576;28;20044;-84
2021/12/01 07:10:10;;;;;;;2.22;1.23;;;;;;;-1.36;85.20;99162.13;5055703;28;20024;-83
2021/12/01 07:12:36;;;;;;;5.57;1.27;;;;;;;-1.35;85.18;99158.41;5064587;28;20055;-84
2021/12/01 07:15:03;;;;;;;2.47;1.48;;;;;;;-1.35;85.20;99142.34;5043841;28;20486;-84
2021/12/01 07:17:28;;;;;;;3.97;1.23;;;;;;;-1.35;85.19;99150.38;5054337;28;20112;-84
2021/12/01 07:19:55;;;;;;;2.80;1.35;;;;;;;-1.36;85.25;99146.09;5055068;28;20013;-84
2021/12/01 07:22:20;;;;;;;5.13;1.45;;;;;;;-1.35;85.28;99142.34;5054529;28;20029;-84
2021/12/01 07:24:46;;;;;;;3.92;1.60;;;;;;;-1.36;85.25;99146.09;5055202;28;20032;-84
2021/12/01 07:27:11;;;;;;;2.88;1.25;;;;;;;-1.36;85.02;99135.41;5051290;28;20025;-84
2021/12/01 07:29:37;;;;;;;2.85;1.30;;;;;;;-1.35;85.13;99133.53;5050769;28;20028;-84
2021/12/01 07:32:03;;;;;;;2.58;1.40;;;;;;;-1.34;85.23;99135.16;5052187;28;20500;-85
2021/12/01 07:34:29;;;;;;;2.25;1.38;;;;;;;-1.32;84.95;99124.22;5053762;28;20036;-84
2021/12/01 07:36:54;;;;;;;1.88;1.10;;;;;;;-1.33;84.92;99125.28;5036419;28;20052;-85
2021/12/01 07:39:20;;;;;;;4.03;2.40;;;;;;;-1.34;84.73;99119.09;5057010;28;20036;-85
2021/12/01 07:41:46;;;;;;;1.25;0.98;;;;;;;-1.35;85.07;99120.97;5054396;28;20481;-85
2021/12/01 07:44:12;;;;;;;3.13;1.20;;;;;;;-1.36;84.79;99119.38;5054764;28;20033;-85
2021/12/01 07:46:37;;;;;;;2.28;1.27;;;;;;;-1.37;84.75;99117.72;5043237;28;20029;-84
2021/12/01 07:49:03;;;;;;;1.27;0.90;;;;;;;-1.37;84.80;99119.59;5054823;28;20021;-84
2021/12/01 07:51:28;;;;;;;2.40;1.42;;;;;;;-1.38;84.72;99110.75;5054865;28;20029;-85
2021/12/01 07:53:55;;;;;;;2.63;1.13;;;;;;;-1.41;84.44;99111.25;5053913;28;20031;-85
2021/12/01 07:56:20;;;;;;;2.97;1.35;;;;;;;-1.42;84.59;99101.59;5050311;28;20025;-85
2021/12/01 07:58:46;;;;;;;2.20;1.23;;;;;;;-1.42;84.52;99108.78;5053552;28;20032;-84
2021/12/01 08:01:11;;;;;;;3.65;1.13;;;;;;;-1.43;84.53;99097.28;5051474;28;20025;-85
2021/12/01 08:03:36;;;;;;;3.00;1.20;;;;;;;-1.43;84.58;99097.28;5034212;28;20033;-84
2021/12/01 08:06:02;;;;;;;3.83;1.30;;;;;;;-1.43;84.40;99089.28;5054376;28;20485;-84
2021/12/01 08:08:27;;;;;;;2.20;1.58;;;;;;;-1.43;84.51;99089.28;5035079;28;20067;-84
2021/12/01 08:10:53;;;;;;;2.17;1.13;;;;;;;-1.41;84.49;99078.34;5054398;28;20029;-84
2021/12/01 08:13:18;;;;;;;2.10;1.23;;;;;;;-1.40;84.34;99074.63;5025999;28;20125;-83
2021/12/01 08:15:45;;;;;;;2.70;1.10;;;;;;;-1.38;84.10;99070.66;5062512;28;20036;-84
2021/12/01 08:18:12;;;;;;;2.75;1.27;;;;;;;-1.36;84.40;99059.75;5053214;28;20039;-84
2021/12/01 08:20:37;;;;;;;1.85;1.08;;;;;;;-1.35;84.37;99059.50;5054214;28;20017;-84
2021/12/01 08:23:03;;;;;;;2.25;1.35;;;;;;;-1.31;84.21;99067.03;5053287;28;20075;-83
2021/12/01 08:25:30;;;;;;;4.65;1.88;;;;;;;-1.31;84.29;99056.34;5054287;28;20025;-84
2021/12/01 08:27:55;;;;;;;3.15;1.80;;;;;;;-1.30;84.35;99055.31;5021035;28;20092;-84
2021/12/01 08:30:21;;;;;;;3.03;1.42;;;;;;;-1.29;84.28;99048.91;5049556;28;20033;-84
2021/12/01 08:32:46;;;;;;;2.70;1.38;;;;;;;-1.26;84.31;99048.44;5053111;28;20021;-84
2021/12/01 08:35:15;;;;;;;1.60;1.00;;;;;;;-1.24;84.03;99040.97;5053728;28;20442;-84
2021/12/01 08:37:40;;;;;;;2.63;1.92;;;;;;;-1.24;84.13;99041.78;5032268;28;20348;-84
2021/12/01 08:40:07;;;;;;;2.75;1.50;;;;;;;-1.23;84.01;99027.41;5032419;28;20037;-85
2021/12/01 08:42:34;;;;;;;5.63;1.73;;;;;;;-1.20;84.22;99018.06;5054000;28;20035;-84
2021/12/01 08:45:00;;;;;;;2.00;1.30;;;;;;;-1.16;83.75;99016.53;5053877;28;20035;-84
2021/12/01 08:47:29;;;;;;;2.83;1.30;;;;;;;-1.14;83.73;99012.56;5050373;28;20025;-84
2021/12/01 08:49:56;;;;;;;2.70;1.20;;;;;;;-1.10;83.69;99004.88;5026507;28;20032;-85
2021/12/01 08:52:24;;;;;;;3.22;1.50;;;;;;;-1.08;83.66;99002.78;5052652;28;20032;-84
2021/12/01 08:54:50;;;;;;;2.15;1.10;;;;;;;-1.07;83.76;98988.34;5055793;28;20028;-84
2021/12/01 08:57:16;;;;;;;3.03;1.20;;;;;;;-1.05;83.59;98991.59;5042485;28;20115;-84
2021/12/01 08:59:41;;;;;;;2.28;1.50;;;;;;;-1.05;83.55;98980.91;5039489;28;20025;-84
2021/12/01 09:02:07;;;;;;;2.00;1.10;;;;;;;-1.06;83.68;98983.81;5052930;28;20025;-84
2021/12/01 09:04:32;;;;;;;1.98;1.13;;;;;;;-1.07;83.68;98974.97;5053221;28;20021;-84
2021/12/01 09:06:58;;;;;;;1.80;1.10;;;;;;;-1.07;83.38;98977.63;5055355;28;20033;-85
2021/12/01 09:09:23;;;;;;;3.17;1.38;;;;;;;-1.07;83.68;98966.94;5053467;28;20029;-85
2021/12/01 09:11:50;;;;;;;2.22;1.08;;;;;;;-1.08;83.42;98962.66;5053646;28;20024;-83
2021/12/01 09:14:16;;;;;;;3.70;1.10;;;;;;;-1.07;83.38;98956.25;5031289;28;20100;-84
2021/12/01 09:16:42;;;;;;;3.25;1.50;;;;;;;-1.06;83.16;98944.53;5035353;28;20017;-84
2021/12/01 09:19:07;;;;;;;3.20;1.55;;;;;;;-1.06;83.13;98939.16;5052059;28;20033;-84
2021/12/01 09:21:34;;;;;;;3.03;0.95;;;;;;;-1.05;83.13;98943.44;5035131;28;20017;-84
2021/12/01 09:24:00;;;;;;;1.88;1.10;;;;;;;-1.03;83.01;98936.00;5047247;28;20028;-85
2021/12/01 09:26:25;;;;;;;3.60;1.10;;;;;;;-1.02;82.99;98932.25;5046677;28;20041;-85
2021/12/01 09:28:51;;;;;;;1.17;0.82;;;;;;;-1.02;82.65;98934.94;5039118;28;20075;-85
2021/12/01 09:31:16;;;;;;;2.00;1.00;;;;;;;-0.99;82.80;98931.78;5053072;28;20465;-85
2021/12/01 09:33:42;;;;;;;1.70;0.93;;;;;;;-0.97;82.79;98929.69;5026134;28;20029;-85
2021/12/01 09:36:07;;;;;;;4.18;1.20;;;;;;;-0.99;82.72;98918.41;5052796;28;20021;-85
2021/12/01 09:38:32;;;;;;;2.05;0.93;;;;;;;-0.99;82.12;98918.41;5052046;28;20051;-85
2021/12/01 09:40:59;;;;;;;1.83;1.10;;;;;;;-0.99;82.44;98921.06;5052761;28;20020;-84
2021/12/01 09:43:27;;;;;;;2.30;0.80;;;;;;;-0.97;82.44;98910.97;5028827;28;20123;-84
2021/12/01 09:45:55;;;;;;;2.35;1.08;;;;;;;-0.98;82.27;98909.34;5036632;28;20020;-84
2021/12/01 09:48:21;;;;;;;2.42;0.88;;;;;;;-0.99;82.21;98905.03;5011125;28;20480;-84
2021/12/01 09:50:47;;;;;;;3.20;1.10;;;;;;;-0.99;82.01;98905.03;5047984;28;20071;-84
2021/12/01 09:53:12;;;;;;;1.95;0.80;;;;;;;-0.98;82.01;98884.47;5047578;28;20063;-84
2021/12/01 09:55:40;;;;;;;2.20;1.10;;;;;;;-0.98;82.01;98879.94;5051467;28;20033;-83
2021/12/01 09:58:11;;;;;;;2.47;1.02;;;;;;;-0.99;81.57;98891.66;5031758;28;20029;-84
2021/12/01 10:00:38;;;;;;;1.98;0.98;;;;;;;-0.99;81.87;98893.53;5048403;28;20351;-85
2021/12/01 10:03:04;;;;;;;1.88;1.15;;;;;;;-1.01;81.73;98882.25;5048236;28;20020;-84
2021/12/01 10:06:04;;;;;;;1.90;1.00;;;;;;;-1.02;81.49;98873.44;5046291;28;20024;-85
2021/12/01 10:08:35;;;;;;;1.63;1.20;;;;;;;-1.01;81.65;98868.88;5033650;28;20029;-84
2021/12/01 10:11:21;;;;;;;1.95;0.93;;;;;;;-1.02;81.39;98852.03;5052110;28;20051;-83
2021/12/01 10:13:50;;;;;;;2.00;0.90;;;;;;;-0.99;81.25;98850.75;5032892;28;20057;-83
2021/12/01 10:16:17;;;;;;;1.55;0.95;;;;;;;-0.97;81.31;98854.78;5048679;28;20453;-84
2021/12/01 10:18:47;;;;;;;1.35;0.80;;;;;;;-0.97;81.24;98841.41;5051630;28;20087;-84
2021/12/01 10:21:15;;;;;;;1.10;0.80;;;;;;;-1.02;80.96;98830.66;5049270;28;20048;-84
2021/12/01 10:23:47;;;;;;;1.20;0.70;;;;;;;-1.03;80.90;98825.56;5057389;28;20032;-84
2021/12/01 10:26:24;;;;;;;1.83;1.00;;;;;;;-1.05;80.83;98812.44;5044759;28;20148;-84
2021/12/01 10:28:52;;;;;;;1.90;1.15;;;;;;;-1.05;80.60;98815.09;5053187;28;20462;-84
2021/12/01 10:31:32;;;;;;;3.50;1.20;;;;;;;-1.06;80.63;98800.13;5055209;28;20071;-84
2021/12/01 10:34:14;;;;;;;1.20;0.90;;;;;;;-1.06;80.47;98800.13;5046825;28;20490;-85
2021/12/01 10:36:40;;;;;;;1.40;0.80;;;;;;;-1.08;80.26;98788.84;5047863;28;20027;-83
2021/12/01 10:39:05;;;;;;;2.60;1.02;;;;;;;-1.10;80.14;98785.63;5046973;28;20024;-84
2021/12/01 10:41:36;;;;;;;4.00;1.20;;;;;;;-1.12;80.13;98782.38;5063418;28;20385;-85
2021/12/01 10:44:08;;;;;;;1.85;1.02;;;;;;;-1.14;79.87;98773.81;5025206;28;20124;-84
2021/12/01 10:46:47;;;;;;;2.65;1.10;;;;;;;-1.16;80.00;98782.06;5037578;28;20469;-84
2021/12/01 10:49:13;;;;;;;2.00;0.95;;;;;;;-1.16;79.79;98786.59;5040389;28;20437;-85
2021/12/01 10:51:39;;;;;;;2.17;1.10;;;;;;;-1.18;79.65;98788.72;5054486;28;20056;-83
2021/12/01 10:54:05;;;;;;;3.75;1.25;;;;;;;-1.19;79.80;98789.78;5050161;28;20035;-85
2021/12/01 10:56:31;;;;;;;1.42;1.00;;;;;;;-1.18;79.70;98802.06;5053995;28;20032;-84
2021/12/01 10:59:08;;;;;;;2.63;1.10;;;;;;;-1.20;79.76;98806.84;5057057;28;20029;-84
2021/12/01 11:01:37;;;;;;;3.50;0.80;;;;;;;-1.20;79.30;98796.16;5052006;28;20509;-84
2021/12/01 11:04:02;;;;;;;1.80;0.88;;;;;;;-1.19;79.58;98792.44;5042091;28;20041;-83
2021/12/01 11:06:33;;;;;;;2.33;1.10;;;;;;;-1.21;79.23;98790.00;5049936;28;20409;-84
2021/12/01 11:08:58;;;;;;;1.00;0.75;;;;;;;-1.19;79.52;98776.41;5043600;28;20025;-84
2021/12/01 11:11:25;;;;;;;3.67;1.40;;;;;;;-1.22;79.13;98771.56;5032010;28;20021;-84
2021/12/01 11:13:51;;;;;;;1.38;0.88;;;;;;;-1.27;79.14;98764.25;5061727;28;20049;-83
2021/12/01 11:16:18;;;;;;;1.38;0.98;;;;;;;-1.29;79.06;98754.88;5051588;28;20456;-83
2021/12/01 11:18:48;;;;;;;1.88;0.90;;;;;;;-1.27;78.92;98742.09;5029063;28;20029;-84
2021/12/01 11:21:17;;;;;;;2.88;1.20;;;;;;;-1.30;78.65;98740.72;5052213;28;20027;-83
2021/12/01 11:24:06;;;;;;;2.20;1.20;;;;;;;-1.33;78.67;98748.41;5066819;28;20099;-83
2021/12/01 11:26:31;;;;;;;2.45;1.60;;;;;;;-1.34;78.74;98736.88;5075549;28;20043;-83
2021/12/01 11:29:02;;;;;;;1.98;1.15;;;;;;;-1.41;78.17;98737.09;5052092;28;20469;-83
2021/12/01 11:31:30;;;;;;;3.65;1.02;;;;;;;-1.45;78.50;98729.78;5063617;28;20021;-83
2021/12/01 11:33:57;;;;;;;1.45;0.90;;;;;;;-1.51;78.35;98725.44;5048002;28;20025;-84